createdAt,value
2022-10-28T00:00:45.924Z,99
2022-10-28T00:10:46.779Z,99
2022-10-28T00:20:47.389Z,99
2022-10-28T00:30:48.180Z,100
2022-10-28T00:40:48.566Z,100
2022-10-28T00:50:48.861Z,100
2022-10-28T01:00:49.830Z,100
2022-10-28T01:10:50.238Z,100
2022-10-28T01:30:51.732Z,100
2022-10-28T01:40:51.983Z,100
2022-10-28T01:50:52.701Z,100
2022-10-28T02:00:52.953Z,100
2022-10-28T02:10:53.845Z,100
2022-10-28T02:20:54.234Z,100
2022-10-28T02:30:54.767Z,100
2022-10-28T02:40:55.838Z,100
2022-10-28T02:50:56.133Z,100
2022-10-28T03:10:57.414Z,100
2022-10-28T03:20:58.927Z,100
2022-10-28T03:30:58.311Z,100
2022-10-28T03:40:58.609Z,100
2022-10-28T03:50:59.063Z,100
2022-10-28T04:01:00.237Z,100
2022-10-28T04:11:00.685Z,100
2022-10-28T04:21:00.854Z,100
2022-10-28T04:41:02.185Z,100
2022-10-28T04:51:02.804Z,100
2022-10-28T05:01:03.286Z,100
2022-10-28T05:11:03.967Z,100
2022-10-28T05:21:04.211Z,100
2022-10-28T05:31:05.090Z,100
2022-10-28T05:41:06.208Z,100
2022-10-28T05:51:07.183Z,100
2022-10-28T06:01:07.942Z,100
2022-10-28T06:11:06.964Z,100
2022-10-28T06:21:07.324Z,100
2022-10-28T06:31:08.132Z,100
2022-10-28T06:41:08.781Z,100
2022-10-28T06:51:11.348Z,99
2022-10-28T07:11:13.042Z,95
2022-10-28T07:21:13.340Z,93
2022-10-28T07:31:13.628Z,93
2022-10-28T07:41:13.841Z,92
2022-10-28T07:51:14.000Z,92
2022-10-28T08:01:14.272Z,90
2022-10-28T08:11:14.919Z,89
2022-10-28T08:21:15.232Z,89
2022-10-28T08:31:16.325Z,87
2022-10-28T08:41:16.832Z,86
2022-10-28T08:51:17.716Z,86
2022-10-28T09:31:18.784Z,81
2022-10-28T09:41:19.486Z,79
2022-10-28T09:51:19.933Z,77
2022-10-28T10:21:22.582Z,74
2022-10-28T10:31:23.287Z,73
2022-10-28T10:51:24.874Z,73
2022-10-28T11:01:25.219Z,72
2022-10-28T11:11:25.827Z,70
2022-10-28T11:21:26.196Z,70
2022-10-28T11:31:26.489Z,71
2022-10-28T11:41:26.623Z,69
2022-10-28T11:51:27.564Z,69
2022-10-28T12:21:30.054Z,66
2022-10-28T12:31:30.853Z,66
2022-10-28T12:41:30.967Z,66
2022-10-28T12:51:31.103Z,65
2022-10-28T13:01:31.948Z,65
2022-10-28T13:21:33.012Z,65
2022-10-28T13:31:33.814Z,65
2022-10-28T13:41:34.565Z,65
2022-10-28T13:51:34.812Z,66
2022-10-28T14:01:35.354Z,67
2022-10-28T14:11:35.876Z,67
2022-10-28T14:21:37.004Z,69
2022-10-28T14:31:37.943Z,69
2022-10-28T14:41:38.788Z,70
2022-10-28T14:51:39.064Z,71
2022-10-28T15:01:39.615Z,70
2022-10-28T15:11:40.526Z,69
2022-10-28T15:21:40.933Z,70
2022-10-28T15:31:41.760Z,70
2022-10-28T15:41:41.969Z,71
2022-10-28T15:51:42.984Z,72
2022-10-28T16:01:43.905Z,73
2022-10-28T16:11:44.569Z,74
2022-10-28T16:21:44.760Z,75
2022-10-28T16:31:45.142Z,76
2022-10-28T16:51:47.105Z,77
2022-10-28T17:01:48.147Z,78
2022-10-28T17:11:48.530Z,79
2022-10-28T17:21:48.870Z,79
2022-10-28T17:31:49.742Z,79
2022-10-28T17:51:51.543Z,81
2022-10-28T18:01:52.141Z,81
2022-10-28T18:11:53.065Z,82
2022-10-28T18:21:53.485Z,82
2022-10-28T18:31:53.654Z,83
2022-10-28T18:41:53.969Z,83
2022-10-28T18:51:54.432Z,83
2022-10-28T19:01:55.183Z,84
2022-10-28T19:11:55.786Z,85
2022-10-28T19:21:56.518Z,85
2022-10-28T19:31:56.925Z,85
2022-10-28T19:41:57.618Z,86
2022-10-28T19:51:58.137Z,86
2022-10-28T20:01:59.082Z,87
2022-10-28T20:11:59.479Z,87
2022-10-28T20:22:00.164Z,87
2022-10-28T20:32:00.803Z,88
2022-10-28T20:42:01.070Z,88
2022-10-28T20:52:02.088Z,89
2022-10-28T21:02:02.719Z,89
2022-10-28T21:12:02.762Z,90
2022-10-28T21:22:03.178Z,90
2022-10-28T21:42:04.145Z,90
2022-10-28T21:52:04.251Z,90
2022-10-28T22:02:08.185Z,91
2022-10-28T22:12:05.604Z,92
2022-10-28T22:22:06.657Z,93
2022-10-28T22:32:06.939Z,93
2022-10-28T22:42:08.155Z,93
2022-10-28T22:52:08.878Z,94
2022-10-28T23:12:09.049Z,95
2022-10-28T23:22:09.357Z,95
2022-10-28T23:32:10.062Z,96
2022-10-28T23:42:10.517Z,96
2022-10-28T23:52:11.182Z,97
